Nearby METAR Reports

 

KSJC - San Jose, California, USA
Distance from station: NE 9mi, 14km
Updated: Sun, 29-Nov-2020 4:53pm CST
Mostly cloudy
Mostly cloudy
 Wind from WNW
Wind: WNW 6 mph , 9 km/h
Temperature: 64°F , 18°C
Dew Point: 28°F , -2°C
Humidity: 26%
Barometer: 30.15 inHg , 1021 hPa
Clouds: Mostly cloudy
Visibility: 10 miles , 16 km
Cloud details: Few Clouds 5000 ft
Partly cloudy 8000 ft
Mostly cloudy 14000 ft
2020/11/29 22:53 KSJC 292253Z 29005KT 10SM FEW050 SCT080 BKN140 18/M02 A3015 RMK AO2 SLP208 T01831017
KNUQ - Moffett Nas/Mtn, California, USA
Distance from station: N 9mi, 14km
Updated: Sun, 15-Nov-2020 4:00am CST
NOT Current
Clear
Clear
 Wind from calm
Wind: Calm
Temperature: 43°F , 6°C
Dew Point: 41°F , 5°C
Humidity: 93%
Barometer: 30.28 inHg , 1025.4 hPa
Clouds: Clear
Visibility: 10 miles , 16 km
2020/11/15 10:00 KNUQ 151000Z AUTO 00000KT 10SM CLR 06/05 A3028 RMK AO2
 
KPAO - Palo Alto, California, USA
Distance from station: NNW 14mi, 23km
Updated: Sun, 29-Nov-2020 4:47pm CST
Few Clouds
Few Clouds
 Wind from NNW
Wind: NNW 6 mph , 9 km/h
Temperature: 59°F , 15°C
Dew Point: 43°F , 6°C
Humidity: 55%
Barometer: 30.16 inHg , 1021.3 hPa
Clouds: Few Clouds
Visibility: 10 miles , 16 km
Cloud details: Few Clouds 12000 ft
2020/11/29 22:47 KPAO 292247Z 34005KT 10SM FEW120 15/06 A3016
KRHV - San Jose/Reid, California, USA
Distance from station: ENE 12mi, 19km
Updated: Sun, 29-Nov-2020 4:47pm CST
Clear
Clear
 Wind from W
Wind: W 5 mph , 7 km/h
Temperature: 64°F , 18°C
Dew Point: 28°F , -2°C
Humidity: 26%
Barometer: 30.15 inHg , 1021 hPa
Clouds: Clear
Visibility: 10 miles , 16 km
2020/11/29 22:47 KRHV 292247Z 28004KT 10SM SKC 18/M02 A3015
 
KOAK - Oakland, California, USA
Distance from station: NNW 31mi, 50km
Updated: Sun, 29-Nov-2020 4:53pm CST
Partly cloudy
Partly cloudy
 Wind from W
Wind: W 7 mph , 11 km/h
Temperature: 61°F , 16°C
Dew Point: 43°F , 6°C
Humidity: 52%
Barometer: 30.18 inHg , 1022 hPa
Clouds: Partly cloudy
Visibility: 10 miles , 16 km
Cloud details: Partly cloudy 25000 ft
2020/11/29 22:53 KOAK 292253Z 27006KT 10SM SCT250 16/06 A3018 RMK AO2 SLP218 T01560061
KSQL - San Carlos Airpo, California, USA
Distance from station: NW 21mi, 34km
Updated: Sun, 29-Nov-2020 4:47pm CST
Few Clouds
Few Clouds
 Wind from NNW
Wind: NNW 5 mph , 7 km/h
Temperature: 59°F , 15°C
Dew Point: 45°F , 7°C
Humidity: 59%
Barometer: 30.16 inHg , 1021.3 hPa
Clouds: Few Clouds
Visibility: 10 miles , 16 km
Cloud details: Few Clouds 20000 ft
2020/11/29 22:47 KSQL 292247Z 33004KT 10SM FEW200 15/07 A3016
 
KSFO - San Francisco, California, USA
Distance from station: NW 30mi, 49km
Updated: Sun, 29-Nov-2020 4:56pm CST
Partly cloudy
Partly cloudy
 Wind from calm
Wind: Calm
Temperature: 59°F , 15°C
Dew Point: 45°F , 7°C
Humidity: 59%
Barometer: 30.16 inHg , 1021.3 hPa
Clouds: Partly cloudy
Visibility: 10 miles , 16 km
Cloud details: Partly cloudy 20000 ft
2020/11/29 22:56 KSFO 292256Z 00000KT 10SM SCT200 15/07 A3016 RMK AO2 SLP212 T01500067
KE16 - San Martin, California, USA
Distance from station: ESE 27mi, 43km
Updated: Sun, 29-Nov-2020 5:15pm CST
Clear
Clear
 Wind from NW
Wind: NW 10 mph , 17 km/h
Temperature: 66°F , 19°C
Dew Point: 27°F , -3°C
Humidity: 22%
Barometer: 30.15 inHg , 1021 hPa
Clouds: Clear
Visibility: 10 miles , 16 km
2020/11/29 23:15 KE16 292315Z AUTO 32009KT 10SM CLR 19/M03 A3015 RMK AO2 PWINO PNO
 
KWVI - Watsonville, California, USA
Distance from station: SSE 27mi, 44km
Updated: Sun, 29-Nov-2020 4:53pm CST
Clear
Clear
 Wind from W
Wind: W 9 mph , 15 km/h
Temperature: 66°F , 19°C
Dew Point: 32°F , 0°C
Humidity: 28%
Barometer: 30.14 inHg , 1020.7 hPa
Clouds: Clear
Visibility: 10 miles , 16 km
2020/11/29 22:53 KWVI 292253Z AUTO 27008KT 10SM CLR 19/00 A3014 RMK AO2 SLP204 T01890000
KHAF - Half Moon Bay, California, USA
Distance from station: WNW 31mi, 50km
Updated: Sun, 29-Nov-2020 5:15pm CST
Haze, Clear
Haze, Clear
 Wind from NW
Wind: NW 8 mph , 13 km/h
Temperature: 55°F , 13°C
Dew Point: 45°F , 7°C
Humidity: 67%
Barometer: 30.18 inHg , 1022 hPa
Summary: Haze
Clouds: Clear
Visibility: 6 miles , 10 km
2020/11/29 23:15 KHAF 292315Z AUTO 32007KT 6SM HZ CLR 13/07 A3018 RMK AO2
 
KHWD - Hayward, California, USA
Distance from station: N 28mi, 44km
Updated: Sun, 29-Nov-2020 4:54pm CST
Clear
Clear
 Wind from W
Wind: W 7 mph , 11 km/h
Temperature: 61°F , 16°C
Dew Point: 36°F , 2°C
Humidity: 39%
Barometer: 30.15 inHg , 1021 hPa
Clouds: Clear
Visibility: 10 miles , 16 km
2020/11/29 22:54 KHWD 292254Z 27006KT 10SM CLR 16/02 A3015 RMK AO2 SLP221 T01560022
KLVK - Livermore, California, USA
Distance from station: NNE 31mi, 51km
Updated: Sun, 29-Nov-2020 4:53pm CST
Clear
Clear
 Wind from ENE
Wind: ENE 12 mph , 19 km/h
Temperature: 63°F , 17°C
Dew Point: 27°F , -3°C
Humidity: 25%
Barometer: 30.15 inHg , 1021 hPa
Clouds: Clear
Visibility: 10 miles , 16 km
2020/11/29 22:53 KLVK 292253Z 07010KT 10SM CLR 17/M03 A3015 RMK AO2 SLP208 T01721028